Time;durP1;ratioP1;P1;durP2;ratioP2;P2;SDS_P1;SDS_P2;PMS_P1;PMS_P2;Temp;Humidity;BMP_temperature;BMP_pressure;BME280_temperature;BME280_humidity;BME280_pressure;Samples;Min_cycle;Max_cycle;Signal;HPM_P1;HPM_P2
2022/01/20 00:04:04;;;;;;;;;;;;;;;5.69;65.54;103075.16;7361379;19;19919;-61
2022/01/20 00:28:26;;;;;;;;;;;;;;;5.37;65.58;103082.66;7263791;19;2004330;-62
2022/01/20 00:31:05;;;;;;;;;;;;;;;5.34;65.46;103092.88;7369752;19;19926;-62
2022/01/20 00:33:43;;;;;;;;;;;;;;;5.29;65.84;103084.06;7369932;19;19918;-62
2022/01/20 00:38:35;;;;;;;;;;;;;;;5.22;65.80;103082.09;7360808;19;19948;-62
2022/01/20 00:41:01;;;;;;;;;;;;;;;5.19;65.83;103082.84;7364407;19;19930;-61
2022/01/20 00:43:26;;;;;;;;;;;;;;;5.18;65.84;103085.38;7361692;19;20332;-62
2022/01/20 00:45:52;;;;;;;;;;;;;;;5.16;65.80;103092.19;7360429;19;19919;-62
2022/01/20 00:48:17;;;;;;;;;;;;;;;5.14;65.73;103099.03;7363103;19;20498;-62
2022/01/20 00:50:42;;;;;;;;;;;;;;;5.13;66.27;103097.25;7358671;19;19923;-61
2022/01/20 00:53:08;;;;;;;;;;;;;;;5.12;66.05;103095.47;7355743;19;19915;-62
2022/01/20 00:55:33;;;;;;;;;;;;;;;5.10;66.03;103098.00;7363690;19;20603;-62
2022/01/20 00:57:58;;;;;;;;;;;;;;;5.10;66.08;103102.31;7370878;19;19919;-62
2022/01/20 01:00:24;;;;;;;;;;;;;;;5.09;65.99;103090.19;7369070;19;19934;-62
2022/01/20 01:02:49;;;;;;;;;;;;;;;5.07;66.10;103099.59;7368340;19;19933;-61
2022/01/20 01:05:30;;;;;;;;;;;;;;;5.06;66.42;103111.66;6492811;19;10000877;-62
2022/01/20 01:07:56;;;;;;;;;;;;;;;5.06;66.36;103118.56;2636569;19;10001189;-61
2022/01/20 01:10:30;;;;;;;;;;;;;;;5.05;66.46;103129.75;7370873;19;19926;-61
2022/01/20 01:13:12;;;;;;;;;;;;;;;5.04;66.42;103127.97;7369770;19;20282;-61
2022/01/20 01:15:42;;;;;;;;;;;;;;;5.03;66.58;103128.81;7370946;19;20566;-62
2022/01/20 01:23:27;;;;;;;;;;;;;;;4.98;66.31;103113.09;7368383;19;19934;-61
2022/01/20 01:25:55;;;;;;;;;;;;;;;4.98;66.31;103123.44;7368704;19;19943;-62
2022/01/20 01:28:22;;;;;;;;;;;;;;;4.95;66.55;103124.19;7366544;19;19918;-62
2022/01/20 01:33:35;;;;;;;;;;;;;;;4.90;66.27;103136.09;7367951;19;19961;-62
2022/01/20 01:36:03;;;;;;;;;;;;;;;4.89;66.17;103142.09;7368437;19;19950;-62
2022/01/20 01:38:39;;;;;;;;;;;;;;;4.85;66.42;103142.78;7366101;19;19922;-62
2022/01/20 01:41:10;;;;;;;;;;;;;;;4.76;66.32;103126.00;7366214;19;19918;-62
2022/01/20 01:43:38;;;;;;;;;;;;;;;4.79;66.38;103145.13;7367559;19;19914;-61
2022/01/20 01:46:03;;;;;;;;;;;;;;;4.76;66.36;103145.00;7366634;19;19934;-61
2022/01/20 01:48:29;;;;;;;;;;;;;;;4.72;66.38;103150.03;7367273;19;19923;-62
2022/01/20 01:50:55;;;;;;;;;;;;;;;4.68;66.09;103154.19;7369576;19;20428;-62
2022/01/20 01:53:20;;;;;;;;;;;;;;;4.63;66.37;103153.97;7358163;19;19915;-62
2022/01/20 01:55:46;;;;;;;;;;;;;;;4.59;66.20;103158.97;7360102;19;19959;-62
2022/01/20 01:58:11;;;;;;;;;;;;;;;4.56;66.62;103161.41;7365104;19;19935;-62
2022/01/20 02:00:37;;;;;;;;;;;;;;;4.51;66.28;103160.34;7365084;19;19982;-61
2022/01/20 02:03:03;;;;;;;;;;;;;;;4.48;66.30;103161.13;7371199;19;19915;-61
2022/01/20 02:05:29;;;;;;;;;;;;;;;4.45;66.83;103166.16;7362108;19;19915;-62
2022/01/20 02:18:53;;;;;;;;;;;;;;;4.35;66.88;103180.38;7367840;19;19940;-62
2022/01/20 02:21:18;;;;;;;;;;;;;;;4.34;66.90;103178.63;7363081;19;19915;-62
2022/01/20 02:23:44;;;;;;;;;;;;;;;4.34;66.93;103178.63;7368483;19;19925;-62
2022/01/20 02:26:10;;;;;;;;;;;;;;;4.33;66.77;103176.00;7365459;19;19964;-62
2022/01/20 02:28:35;;;;;;;;;;;;;;;4.33;66.99;103176.88;7364628;19;19910;-62
2022/01/20 02:31:00;;;;;;;;;;;;;;;4.33;67.20;103176.88;7369564;19;19938;-62
2022/01/20 02:33:27;;;;;;;;;;;;;;;4.35;67.32;103190.75;7366099;19;19915;-62
2022/01/20 02:35:54;;;;;;;;;;;;;;;4.37;67.51;103194.28;7366621;19;19915;-62
2022/01/20 02:38:23;;;;;;;;;;;;;;;4.39;67.33;103194.34;7362899;19;19922;-62
2022/01/20 02:46:03;;;;;;;;;;;;;;;4.44;67.83;103195.44;7369503;19;20343;-62
2022/01/20 02:48:28;;;;;;;;;;;;;;;4.47;67.71;103199.88;7358926;19;19978;-61
2022/01/20 02:50:54;;;;;;;;;;;;;;;4.43;67.58;103194.56;7363857;19;19919;-62
2022/01/20 02:53:19;;;;;;;;;;;;;;;4.50;67.44;103205.16;7368627;19;19918;-62
2022/01/20 02:55:44;;;;;;;;;;;;;;;4.51;67.85;103199.16;7375192;19;19915;-61
2022/01/20 02:58:10;;;;;;;;;;;;;;;4.52;67.37;103198.34;7367212;19;19948;-61
2022/01/20 03:00:35;;;;;;;;;;;;;;;4.52;67.66;103194.06;7372543;19;19915;-62
2022/01/20 03:03:01;;;;;;;;;;;;;;;4.53;67.31;103189.78;7372810;19;19922;-62
2022/01/20 03:05:43;;;;;;;;;;;;;;;4.50;67.68;103184.44;3145252;19;10022072;-61
2022/01/20 03:08:08;;;;;;;;;;;;;;;4.53;67.47;103197.53;6145671;19;10001083;-62
2022/01/20 03:10:33;;;;;;;;;;;;;;;4.52;67.59;103199.25;7365616;19;19911;-62
2022/01/20 03:12:59;;;;;;;;;;;;;;;4.52;67.46;103195.78;7363573;19;20476;-62
2022/01/20 03:15:24;;;;;;;;;;;;;;;4.52;67.63;103198.34;7360209;19;19907;-62
2022/01/20 03:17:50;;;;;;;;;;;;;;;4.51;67.56;103196.56;7361488;19;19915;-62
2022/01/20 03:20:15;;;;;;;;;;;;;;;4.49;67.30;103196.50;7363602;19;19944;-62
2022/01/20 03:22:40;;;;;;;;;;;;;;;4.50;67.53;103194.81;7350782;19;19930;-61
2022/01/20 03:25:06;;;;;;;;;;;;;;;4.47;67.42;103190.41;7359425;19;19931;-61
2022/01/20 03:27:31;;;;;;;;;;;;;;;4.47;67.52;103195.56;7361844;19;19907;-61
2022/01/20 03:29:57;;;;;;;;;;;;;;;4.47;67.51;103195.56;7361335;19;19942;-62
2022/01/20 03:32:22;;;;;;;;;;;;;;;4.45;67.40;103192.03;7361255;19;19914;-62
2022/01/20 03:34:47;;;;;;;;;;;;;;;4.45;67.80;103196.31;7365414;19;19922;-62
2022/01/20 03:37:13;;;;;;;;;;;;;;;4.45;67.57;103201.47;7359421;19;19922;-61
2022/01/20 03:39:38;;;;;;;;;;;;;;;4.43;67.44;103211.78;7363457;19;20764;-61
2022/01/20 03:42:03;;;;;;;;;;;;;;;4.41;67.40;103206.53;7364634;19;19923;-61
2022/01/20 03:44:29;;;;;;;;;;;;;;;4.40;67.83;103203.88;7365254;19;19918;-62
2022/01/20 03:46:54;;;;;;;;;;;;;;;4.37;67.60;103198.59;7366728;19;20269;-62
2022/01/20 03:52:13;;;;;;;;;;;;;;;4.33;67.97;103200.16;7254415;19;2004416;-62
2022/01/20 03:54:39;;;;;;;;;;;;;;;4.31;68.09;103199.22;7363330;19;19934;-62
2022/01/20 03:57:04;;;;;;;;;;;;;;;4.31;67.77;103203.47;7361728;19;19979;-61
2022/01/20 03:59:29;;;;;;;;;;;;;;;4.29;67.72;103216.34;7365831;19;19961;-62
2022/01/20 04:01:54;;;;;;;;;;;;;;;4.29;68.08;103218.94;7365076;19;19918;-62
2022/01/20 04:04:20;;;;;;;;;;;;;;;4.27;67.95;103207.66;7348235;19;19919;-62
2022/01/20 04:06:45;;;;;;;;;;;;;;;4.26;67.98;103213.66;7358124;19;20012;-62
2022/01/20 04:09:10;;;;;;;;;;;;;;;4.25;67.84;103204.09;7359292;19;19943;-61
2022/01/20 04:11:36;;;;;;;;;;;;;;;4.26;68.02;103199.81;7362782;19;19911;-62
2022/01/20 04:14:03;;;;;;;;;;;;;;;4.24;68.19;103197.16;7366051;19;19942;-62
2022/01/20 04:16:51;;;;;;;;;;;;;;;4.24;68.00;103212.69;7365154;19;19929;-62
2022/01/20 04:19:16;;;;;;;;;;;;;;;4.21;68.34;103212.56;7360271;19;19948;-62
2022/01/20 04:21:42;;;;;;;;;;;;;;;4.22;68.05;103214.31;7360048;19;21011;-62
2022/01/20 04:24:10;;;;;;;;;;;;;;;4.21;68.18;103217.75;7362259;19;19931;-62
2022/01/20 04:26:36;;;;;;;;;;;;;;;4.19;68.39;103218.47;7364636;19;19918;-62
2022/01/20 04:29:02;;;;;;;;;;;;;;;4.15;68.14;103207.97;7368464;19;19986;-62
2022/01/20 04:31:29;;;;;;;;;;;;;;;4.14;68.38;103202.75;7373097;19;19919;-62
2022/01/20 04:33:58;;;;;;;;;;;;;;;4.13;67.92;103201.88;7373525;19;20552;-62
2022/01/20 04:36:24;;;;;;;;;;;;;;;4.11;68.19;103205.22;7373167;19;19953;-62
2022/01/20 04:38:50;;;;;;;;;;;;;;;4.09;68.00;103201.66;7368940;19;19938;-62
2022/01/20 04:41:15;;;;;;;;;;;;;;;3.98;68.38;103197.72;7366364;19;19929;-61
2022/01/20 04:43:41;;;;;;;;;;;;;;;4.05;68.11;103216.16;7369452;19;19994;-62
2022/01/20 04:59:20;;;;;;;;;;;;;;;3.97;68.50;103221.81;7376572;19;19957;-62
2022/01/20 05:01:46;;;;;;;;;;;;;;;3.95;68.50;103226.00;7378458;19;19922;-62
2022/01/20 05:04:12;;;;;;;;;;;;;;;3.94;68.64;103229.41;7374559;19;19915;-62
2022/01/20 05:06:40;;;;;;;;;;;;;;;3.93;68.55;103235.41;1097316;19;10001839;-62
2022/01/20 05:09:06;;;;;;;;;;;;;;;3.90;68.74;103247.41;7376177;19;19929;-62
2022/01/20 05:11:33;;;;;;;;;;;;;;;3.89;68.51;103250.78;7365541;19;19919;-61
2022/01/20 05:13:59;;;;;;;;;;;;;;;3.88;68.53;103245.53;7371324;19;19919;-62
2022/01/20 05:16:24;;;;;;;;;;;;;;;3.87;68.68;103246.38;7364327;19;20005;-62
2022/01/20 05:18:49;;;;;;;;;;;;;;;3.85;68.64;103256.63;7368735;19;19915;-61
2022/01/20 05:21:15;;;;;;;;;;;;;;;3.83;68.97;103255.66;7366740;19;19919;-62
2022/01/20 05:23:40;;;;;;;;;;;;;;;3.82;68.48;103256.50;7366623;19;19952;-62
2022/01/20 05:26:05;;;;;;;;;;;;;;;3.79;68.43;103248.56;7364908;19;20421;-62
2022/01/20 05:28:31;;;;;;;;;;;;;;;3.77;68.65;103252.81;7368420;19;19935;-62
2022/01/20 05:30:56;;;;;;;;;;;;;;;3.74;69.01;103255.22;7366222;19;19923;-62
2022/01/20 05:33:21;;;;;;;;;;;;;;;3.72;68.83;103251.72;7368037;19;19926;-62
2022/01/20 05:35:46;;;;;;;;;;;;;;;3.70;69.01;103263.69;7366588;19;19919;-61
2022/01/20 05:38:12;;;;;;;;;;;;;;;3.69;69.02;103261.00;7368283;19;20383;-62
2022/01/20 05:40:38;;;;;;;;;;;;;;;3.67;69.21;103268.69;7365537;19;19915;-62
2022/01/20 05:43:03;;;;;;;;;;;;;;;3.67;69.04;103271.28;7363566;19;20433;-62
2022/01/20 05:45:28;;;;;;;;;;;;;;;3.67;69.03;103268.69;7368845;19;19923;-62
2022/01/20 05:48:01;;;;;;;;;;;;;;;3.67;69.15;103283.31;7367222;19;19990;-61
2022/01/20 05:50:26;;;;;;;;;;;;;;;3.68;69.41;103283.38;7375319;19;19931;-62
2022/01/20 05:52:51;;;;;;;;;;;;;;;3.68;69.40;103285.97;7376397;19;20003;-62
2022/01/20 05:55:18;;;;;;;;;;;;;;;3.67;69.04;103279.03;7373853;19;19919;-62
2022/01/20 05:57:45;;;;;;;;;;;;;;;3.67;69.23;103278.16;7377186;19;20229;-62
2022/01/20 06:00:12;;;;;;;;;;;;;;;3.64;69.04;103274.59;7369330;19;19931;-62
2022/01/20 06:03:36;;;;;;;;;;;;;;;3.63;69.53;103272.81;7365561;19;19993;-62
2022/01/20 06:05:23;;;;;;;;;;;;;;;3.60;68.94;103277.00;7267917;19;2004577;-62
2022/01/20 06:07:48;;;;;;;;;;;;;;;3.60;69.32;103289.91;7367832;19;19911;-62
2022/01/20 06:10:13;;;;;;;;;;;;;;;3.57;69.22;103287.16;7363056;19;19922;-61
2022/01/20 06:12:38;;;;;;;;;;;;;;;3.55;69.11;103296.56;7366671;19;20795;-61
2022/01/20 06:15:04;;;;;;;;;;;;;;;3.54;69.06;103302.50;7364475;19;19929;-62
2022/01/20 06:17:33;;;;;;;;;;;;;;;3.52;69.18;103304.16;7367549;19;19914;-62
2022/01/20 06:19:58;;;;;;;;;;;;;;;3.51;69.44;103302.38;7362711;19;19923;-62
2022/01/20 06:22:24;;;;;;;;;;;;;;;3.50;69.19;103306.66;7365769;19;19998;-62
2022/01/20 06:24:49;;;;;;;;;;;;;;;3.48;69.13;103318.59;7362839;19;19915;-62
2022/01/20 06:27:14;;;;;;;;;;;;;;;3.47;69.28;103315.97;7368374;19;19914;-62
2022/01/20 06:29:40;;;;;;;;;;;;;;;3.46;69.24;103325.41;7361401;19;19943;-62
2022/01/20 06:32:05;;;;;;;;;;;;;;;3.45;69.11;103322.72;7366081;19;19915;-61
2022/01/20 06:34:30;;;;;;;;;;;;;;;3.42;69.21;103327.75;7365522;19;19931;-61
2022/01/20 06:36:56;;;;;;;;;;;;;;;3.41;69.00;103331.16;7368715;19;19986;-62
2022/01/20 06:39:22;;;;;;;;;;;;;;;3.39;69.25;103333.66;7364691;19;19915;-62
2022/01/20 06:41:47;;;;;;;;;;;;;;;3.37;69.01;103345.63;7366009;19;20398;-62
2022/01/20 06:44:12;;;;;;;;;;;;;;;3.33;69.05;103341.97;7368814;19;19919;-61
2022/01/20 06:46:38;;;;;;;;;;;;;;;3.31;69.14;103350.47;7372246;19;20002;-62
2022/01/20 06:49:03;;;;;;;;;;;;;;;3.28;68.75;103346.03;7375190;19;19915;-62
2022/01/20 06:51:28;;;;;;;;;;;;;;;3.24;69.17;103359.59;7367399;19;19926;-62
2022/01/20 06:53:54;;;;;;;;;;;;;;;3.21;68.98;103369.78;7368824;19;19971;-62
2022/01/20 06:56:19;;;;;;;;;;;;;;;3.18;69.04;103374.78;7368558;19;19935;-62
2022/01/20 06:58:44;;;;;;;;;;;;;;;3.13;68.95;103376.25;7365357;19;19923;-62
2022/01/20 07:01:12;;;;;;;;;;;;;;;3.08;68.94;103373.44;6831504;19;9999855;-62
2022/01/20 07:03:37;;;;;;;;;;;;;;;3.06;69.09;103371.59;1619368;19;10001867;-63
2022/01/20 07:06:02;;;;;;;;;;;;;;;3.04;69.39;103378.34;7364477;19;19918;-62
2022/01/20 07:08:28;;;;;;;;;;;;;;;3.02;69.30;103377.41;7366536;19;19954;-62
2022/01/20 07:10:53;;;;;;;;;;;;;;;2.97;69.44;103378.88;7363206;19;19922;-61
2022/01/20 07:13:18;;;;;;;;;;;;;;;2.97;69.64;103384.91;7367071;19;20018;-62
2022/01/20 07:15:44;;;;;;;;;;;;;;;2.96;69.45;103382.25;7364094;19;20682;-61
2022/01/20 07:18:09;;;;;;;;;;;;;;;2.95;69.38;103385.66;7366145;19;19946;-62
2022/01/20 07:20:34;;;;;;;;;;;;;;;2.95;69.75;103377.91;7360505;19;19921;-62
2022/01/20 07:22:59;;;;;;;;;;;;;;;2.92;69.63;103375.16;7365528;19;19923;-62
2022/01/20 07:25:25;;;;;;;;;;;;;;;2.93;69.80;103380.41;7364152;19;19923;-62
2022/01/20 07:27:50;;;;;;;;;;;;;;;2.93;69.89;103397.56;7362940;19;19919;-62
2022/01/20 07:30:15;;;;;;;;;;;;;;;2.92;69.70;103395.81;7369980;19;19927;-62
2022/01/20 07:32:41;;;;;;;;;;;;;;;2.92;69.41;103403.56;7367507;19;19934;-62
2022/01/20 07:35:06;;;;;;;;;;;;;;;2.93;69.79;103407.91;7359750;19;20257;-62
2022/01/20 07:37:31;;;;;;;;;;;;;;;2.92;69.70;103406.13;7370452;19;19943;-62
2022/01/20 07:39:57;;;;;;;;;;;;;;;2.92;69.72;103400.97;7368429;19;19918;-62
2022/01/20 07:42:22;;;;;;;;;;;;;;;2.92;69.62;103400.97;7367135;19;19913;-62
2022/01/20 07:44:47;;;;;;;;;;;;;;;2.91;69.82;103394.03;7361270;19;19974;-62
2022/01/20 07:47:13;;;;;;;;;;;;;;;2.90;69.81;103392.28;7363328;19;19923;-62
2022/01/20 07:49:38;;;;;;;;;;;;;;;2.90;69.65;103394.84;7362957;19;19926;-61
2022/01/20 07:52:03;;;;;;;;;;;;;;;2.89;69.87;103405.97;7364804;19;19911;-62
2022/01/20 07:54:29;;;;;;;;;;;;;;;2.86;69.55;103417.91;7364818;19;19986;-61
2022/01/20 07:56:54;;;;;;;;;;;;;;;2.84;69.46;103419.53;7340742;19;19910;-62
2022/01/20 07:59:19;;;;;;;;;;;;;;;2.82;69.11;103423.72;7362162;19;19974;-62
2022/01/20 08:01:45;;;;;;;;;;;;;;;2.80;69.28;103429.63;7350583;19;19951;-61
2022/01/20 08:04:10;;;;;;;;;;;;;;;2.78;69.46;103434.66;7356397;19;19931;-62
2022/01/20 08:06:35;;;;;;;;;;;;;;;2.77;69.58;103422.59;7360541;19;19975;-62
2022/01/20 08:09:01;;;;;;;;;;;;;;;2.76;69.55;103425.97;7355249;19;19923;-62
2022/01/20 08:11:26;;;;;;;;;;;;;;;2.77;70.02;103435.47;7361383;19;19922;-62
2022/01/20 08:13:52;;;;;;;;;;;;;;;2.78;69.81;103431.22;7359335;19;19923;-62
2022/01/20 08:16:18;;;;;;;;;;;;;;;2.79;70.21;103426.16;7357778;19;20351;-62
2022/01/20 08:18:43;;;;;;;;;;;;;;;2.84;70.31;103435.03;7360694;19;19923;-61
2022/01/20 08:21:08;;;;;;;;;;;;;;;2.88;70.28;103425.72;7358450;19;19919;-62
2022/01/20 08:23:34;;;;;;;;;;;;;;;2.92;70.24;103426.78;7360019;19;20654;-62
2022/01/20 08:25:59;;;;;;;;;;;;;;;2.99;70.25;103431.44;7370089;19;19915;-62
2022/01/20 08:28:24;;;;;;;;;;;;;;;3.03;70.79;103430.81;7369847;19;20396;-62
2022/01/20 08:30:50;;;;;;;;;;;;;;;3.08;70.84;103434.50;7367812;19;20458;-62
2022/01/20 08:33:16;;;;;;;;;;;;;;;3.13;70.79;103438.22;7362495;19;19919;-61
2022/01/20 08:35:41;;;;;;;;;;;;;;;3.20;70.77;103435.16;7363875;19;19940;-62
2022/01/20 08:38:07;;;;;;;;;;;;;;;3.25;70.69;103444.03;7354660;19;19919;-61
2022/01/20 08:40:33;;;;;;;;;;;;;;;3.32;70.48;103446.09;7362290;19;20619;-62
2022/01/20 08:42:59;;;;;;;;;;;;;;;3.38;70.58;103456.75;7361586;19;19990;-62
2022/01/20 08:45:26;;;;;;;;;;;;;;;3.44;70.58;103452.69;7359992;19;19927;-62
2022/01/20 08:47:54;;;;;;;;;;;;;;;3.49;70.23;103454.69;7359677;19;19918;-62
2022/01/20 08:50:20;;;;;;;;;;;;;;;3.54;70.21;103463.56;7360766;19;19915;-63
2022/01/20 08:52:47;;;;;;;;;;;;;;;3.59;70.22;103458.63;7357827;19;19922;-61
2022/01/20 08:55:30;;;;;;;;;;;;;;;3.63;70.52;103469.19;3056062;19;10021731;-60
2022/01/20 08:57:57;;;;;;;;;;;;;;;3.69;70.42;103467.75;6137895;19;10001295;-61
2022/01/20 09:00:24;;;;;;;;;;;;;;;3.73;70.50;103465.38;7349437;19;20737;-60
2022/01/20 09:02:50;;;;;;;;;;;;;;;3.79;70.74;103457.94;7355234;19;19974;-60
2022/01/20 09:05:15;;;;;;;;;;;;;;;3.84;70.89;103464.22;7360512;19;19932;-61
2022/01/20 09:07:41;;;;;;;;;;;;;;;3.89;70.62;103467.91;7362434;19;20033;-60
2022/01/20 09:10:08;;;;;;;;;;;;;;;3.96;70.59;103474.28;7359117;19;19931;-62
2022/01/20 09:17:44;;;;;;;;;;;;;;;4.12;70.35;103483.66;7369743;19;20013;-61
2022/01/20 09:20:10;;;;;;;;;;;;;;;4.18;70.57;103480.50;7372641;19;19938;-59
2022/01/20 09:22:37;;;;;;;;;;;;;;;4.23;70.75;103479.91;7373476;19;20597;-60
2022/01/20 09:25:02;;;;;;;;;;;;;;;4.27;70.53;103480.94;7364282;19;20530;-61
2022/01/20 09:27:28;;;;;;;;;;;;;;;4.33;70.34;103487.28;7365517;19;19997;-61
2022/01/20 09:29:54;;;;;;;;;;;;;;;4.37;70.70;103488.31;7365617;19;19918;-61
2022/01/20 09:32:20;;;;;;;;;;;;;;;4.40;70.56;103489.34;7361235;19;19952;-60
2022/01/20 09:34:46;;;;;;;;;;;;;;;4.45;70.30;103496.44;7358792;19;19926;-61
2022/01/20 09:37:12;;;;;;;;;;;;;;;4.48;70.25;103497.47;7345705;19;20002;-61
2022/01/20 09:39:38;;;;;;;;;;;;;;;4.51;70.30;103507.06;7363966;19;19936;-61
2022/01/20 09:42:04;;;;;;;;;;;;;;;4.51;70.47;103507.06;7369222;19;20515;-61
2022/01/20 09:44:29;;;;;;;;;;;;;;;4.52;70.14;103509.75;7366842;19;19922;-60
2022/01/20 09:46:55;;;;;;;;;;;;;;;4.53;69.96;103511.50;7367684;19;19964;-61
2022/01/20 09:49:20;;;;;;;;;;;;;;;4.55;70.37;103516.75;7366942;19;19966;-61
2022/01/20 09:51:45;;;;;;;;;;;;;;;4.59;70.04;103511.78;7367427;19;19929;-61
2022/01/20 09:54:11;;;;;;;;;;;;;;;4.63;70.36;103518.00;7367199;19;20368;-61
2022/01/20 09:56:37;;;;;;;;;;;;;;;4.69;70.17;103521.75;7359484;19;20275;-60
2022/01/20 09:59:03;;;;;;;;;;;;;;;4.74;70.04;103519.41;7368123;19;19919;-60
2022/01/20 10:01:34;;;;;;;;;;;;;;;4.81;70.15;103508.50;7365513;19;19954;-60
2022/01/20 10:04:00;;;;;;;;;;;;;;;4.90;70.41;103520.97;7370200;19;19927;-60
2022/01/20 10:06:25;;;;;;;;;;;;;;;4.99;70.33;103513.63;7367250;19;19926;-61
2022/01/20 10:08:57;;;;;;;;;;;;;;;5.06;70.48;103519.97;7360916;19;19922;-60
2022/01/20 10:11:22;;;;;;;;;;;;;;;5.18;70.81;103530.91;7366062;19;20411;-60
2022/01/20 10:13:48;;;;;;;;;;;;;;;5.37;70.72;103525.72;7361327;19;19926;-61
2022/01/20 10:16:15;;;;;;;;;;;;;;;5.65;71.38;103524.31;7368100;19;19923;-62
2022/01/20 10:18:48;;;;;;;;;;;;;;;5.96;71.15;103521.34;7356727;19;20333;-60
2022/01/20 10:21:14;;;;;;;;;;;;;;;6.34;71.50;103525.50;7365515;19;19922;-61
2022/01/20 10:23:47;;;;;;;;;;;;;;;6.74;71.73;103521.84;7366795;19;19932;-60
2022/01/20 10:26:16;;;;;;;;;;;;;;;7.20;72.08;103532.28;7366581;19;19915;-61
2022/01/20 10:28:46;;;;;;;;;;;;;;;7.64;71.93;103527.75;7367368;19;20412;-60
2022/01/20 10:31:11;;;;;;;;;;;;;;;8.01;71.35;103522.09;7362715;19;19922;-61
2022/01/20 10:33:43;;;;;;;;;;;;;;;8.31;70.65;103530.03;7363232;19;19932;-61
2022/01/20 10:36:09;;;;;;;;;;;;;;;8.56;70.12;103534.28;7364075;19;19917;-61
2022/01/20 10:38:35;;;;;;;;;;;;;;;8.69;69.65;103542.50;7367582;19;20304;-63
2022/01/20 10:41:00;;;;;;;;;;;;;;;8.74;69.59;103552.22;7365560;19;19923;-61
2022/01/20 10:43:31;;;;;;;;;;;;;;;8.74;68.96;103561.75;7368049;19;20340;-60
2022/01/20 10:46:06;;;;;;;;;;;;;;;8.68;68.46;103566.78;7364773;19;20656;-60
2022/01/20 10:48:32;;;;;;;;;;;;;;;8.60;68.74;103568.25;7368938;19;20285;-61
2022/01/20 10:50:57;;;;;;;;;;;;;;;8.49;68.58;103553.19;7367006;19;19923;-61
2022/01/20 10:53:23;;;;;;;;;;;;;;;8.41;68.61;103551.16;7357936;19;19923;-60
2022/01/20 10:55:49;;;;;;;;;;;;;;;8.31;68.62;103549.94;7367148;19;19991;-61
2022/01/20 10:58:27;;;;;;;;;;;;;;;8.14;68.18;103525.09;3029149;19;10021874;-61
2022/01/20 11:00:53;;;;;;;;;;;;;;;8.15;68.50;103548.56;6044018;19;10000940;-60
2022/01/20 11:03:19;;;;;;;;;;;;;;;8.10;68.55;103550.13;7359837;19;20328;-61
2022/01/20 11:05:49;;;;;;;;;;;;;;;8.05;68.57;103552.56;7363464;19;19923;-61
2022/01/20 11:08:15;;;;;;;;;;;;;;;8.01;68.45;103550.72;7362844;19;19947;-61
2022/01/20 11:10:42;;;;;;;;;;;;;;;7.97;68.39;103543.66;7367231;19;19924;-60
2022/01/20 11:13:09;;;;;;;;;;;;;;;7.96;68.78;103547.09;7368927;19;19922;-60
2022/01/20 11:15:34;;;;;;;;;;;;;;;7.95;68.89;103545.28;7362712;19;19911;-60
2022/01/20 11:17:59;;;;;;;;;;;;;;;7.95;68.91;103547.91;7359398;19;19943;-58
2022/01/20 11:20:28;;;;;;;;;;;;;;;7.94;68.80;103551.34;7366102;19;19956;-60
2022/01/20 11:22:57;;;;;;;;;;;;;;;7.95;68.64;103555.69;7354644;19;20016;-61
2022/01/20 11:25:24;;;;;;;;;;;;;;;7.95;68.95;103560.03;7365901;19;19926;-59
2022/01/20 11:28:04;;;;;;;;;;;;;;;7.96;68.83;103557.50;7358609;19;20255;-60
2022/01/20 11:30:31;;;;;;;;;;;;;;;7.95;68.72;103549.63;7367670;19;19923;-60
2022/01/20 11:33:01;;;;;;;;;;;;;;;7.95;68.66;103558.31;7355132;19;19945;-60
2022/01/20 11:35:37;;;;;;;;;;;;;;;7.94;68.55;103551.34;7367005;19;19915;-60
2022/01/20 11:38:02;;;;;;;;;;;;;;;7.95;68.92;103550.50;7358128;19;19914;-61
2022/01/20 11:40:28;;;;;;;;;;;;;;;7.98;68.70;103558.41;7325708;19;19942;-63
2022/01/20 11:43:08;;;;;;;;;;;;;;;7.99;68.81;103560.19;7244566;19;19925;-61
2022/01/20 11:45:35;;;;;;;;;;;;;;;8.02;68.77;103567.22;7363301;19;19915;-61
2022/01/20 11:48:12;;;;;;;;;;;;;;;8.05;68.87;103563.00;7369160;19;19939;-61
2022/01/20 11:50:38;;;;;;;;;;;;;;;8.07;68.58;103561.34;7364940;19;19929;-62
2022/01/20 11:53:11;;;;;;;;;;;;;;;8.12;68.94;103552.81;7362587;19;19923;-61
2022/01/20 11:55:56;;;;;;;;;;;;;;;8.28;69.55;103545.53;7358779;19;19926;-60
2022/01/20 11:58:23;;;;;;;;;;;;;;;8.66;70.52;103548.50;7362165;19;19926;-61
2022/01/20 12:00:59;;;;;;;;;;;;;;;9.12;70.85;103543.75;7363742;19;20342;-61
2022/01/20 12:03:24;;;;;;;;;;;;;;;9.68;71.71;103547.06;7363083;19;19927;-62
2022/01/20 12:05:56;;;;;;;;;;;;;;;10.22;71.08;103537.13;7361146;19;19929;-62
2022/01/20 12:08:21;;;;;;;;;;;;;;;10.73;70.43;103538.34;7354451;19;19918;-61
2022/01/20 12:10:59;;;;;;;;;;;;;;;11.09;69.51;103528.66;7354475;19;19952;-61
2022/01/20 12:13:24;;;;;;;;;;;;;;;11.39;68.81;103535.34;7354950;19;19919;-60
2022/01/20 12:15:51;;;;;;;;;;;;;;;11.58;68.15;103532.25;7354685;19;20770;-60
2022/01/20 12:18:16;;;;;;;;;;;;;;;11.72;67.74;103539.47;7336096;19;19923;-60
2022/01/20 12:20:42;;;;;;;;;;;;;;;11.81;67.33;103539.63;7353922;19;19915;-60
2022/01/20 12:23:07;;;;;;;;;;;;;;;11.92;67.32;103532.88;7345926;19;19919;-61
2022/01/20 12:25:35;;;;;;;;;;;;;;;11.99;67.17;103526.88;7319040;19;20381;-61
2022/01/20 12:28:02;;;;;;;;;;;;;;;12.06;67.24;103526.13;7335216;19;19953;-61
2022/01/20 12:30:28;;;;;;;;;;;;;;;12.10;66.49;103521.81;7323208;19;20017;-61
2022/01/20 12:33:06;;;;;;;;;;;;;;;12.10;66.06;103521.81;7320764;19;19939;-60
2022/01/20 12:35:41;;;;;;;;;;;;;;;12.09;66.29;103523.56;7317905;19;20143;-60
2022/01/20 12:38:22;;;;;;;;;;;;;;;12.05;65.91;103524.34;7319864;19;19939;-60
2022/01/20 12:41:08;;;;;;;;;;;;;;;11.99;65.41;103524.25;7336857;19;19918;-61
2022/01/20 12:43:34;;;;;;;;;;;;;;;11.92;65.31;103522.41;7314318;19;19972;-61
2022/01/20 12:46:00;;;;;;;;;;;;;;;11.83;65.53;103522.25;7338177;19;19943;-60
2022/01/20 12:48:25;;;;;;;;;;;;;;;11.73;65.20;103509.81;7347164;19;20363;-61
2022/01/20 12:50:50;;;;;;;;;;;;;;;11.64;65.46;103521.00;7357834;19;19970;-61
2022/01/20 12:53:17;;;;;;;;;;;;;;;11.54;65.12;103512.09;7346842;19;19926;-61
2022/01/20 12:55:49;;;;;;;;;;;;;;;11.44;65.24;103507.53;7336822;19;19923;-61
2022/01/20 12:58:15;;;;;;;;;;;;;;;11.36;65.52;103519.63;7354659;19;19947;-60
2022/01/20 13:00:40;;;;;;;;;;;;;;;11.29;65.24;103518.59;7359015;19;19921;-60
2022/01/20 13:03:05;;;;;;;;;;;;;;;11.22;65.57;103532.44;7351361;19;19919;-60
2022/01/20 13:05:41;;;;;;;;;;;;;;;11.15;65.35;103531.44;6130640;19;10000643;-61
2022/01/20 13:08:07;;;;;;;;;;;;;;;11.08;65.28;103518.19;2739208;19;10001931;-61
2022/01/20 13:10:34;;;;;;;;;;;;;;;11.02;65.72;103518.94;7349744;19;19929;-61
2022/01/20 13:13:02;;;;;;;;;;;;;;;10.96;65.64;103515.34;7364753;19;19955;-61
2022/01/20 13:15:30;;;;;;;;;;;;;;;10.90;65.47;103516.09;7337679;19;19923;-60
2022/01/20 13:18:01;;;;;;;;;;;;;;;10.84;65.71;103523.78;7354926;19;19926;-61
2022/01/20 13:20:27;;;;;;;;;;;;;;;10.78;65.75;103518.41;7345353;19;19927;-61
2022/01/20 13:22:59;;;;;;;;;;;;;;;10.73;65.42;103514.81;7366912;19;19940;-59
2022/01/20 13:25:31;;;;;;;;;;;;;;;10.70;65.49;103509.56;7342965;19;19939;-61
2022/01/20 13:27:57;;;;;;;;;;;;;;;10.65;65.57;103507.72;7347670;19;19915;-60
2022/01/20 13:30:24;;;;;;;;;;;;;;;10.63;65.79;103511.13;7349530;19;19944;-60
2022/01/20 13:32:49;;;;;;;;;;;;;;;10.61;65.98;103511.09;7352457;19;19959;-60
2022/01/20 13:35:14;;;;;;;;;;;;;;;10.59;66.11;103512.81;7357847;19;19918;-61
2022/01/20 13:37:39;;;;;;;;;;;;;;;10.58;65.84;103504.91;7356969;19;19983;-60
2022/01/20 13:40:06;;;;;;;;;;;;;;;10.58;65.96;103510.16;7346052;19;19942;-59
2022/01/20 13:45:00;;;;;;;;;;;;;;;10.58;65.79;103510.16;7344527;19;20401;-61
2022/01/20 13:45:23;;;;;;;;;;;;;;;10.56;66.04;103497.06;7261372;19;2004454;-61
2022/01/20 13:47:56;;;;;;;;;;;;;;;10.56;65.70;103491.81;7364382;19;20612;-60
2022/01/20 13:50:38;;;;;;;;;;;;;;;10.57;66.12;103492.72;7359093;19;20006;-61
2022/01/20 13:53:26;;;;;;;;;;;;;;;10.56;65.80;103494.44;7321621;19;20368;-61
2022/01/20 13:55:52;;;;;;;;;;;;;;;10.58;66.21;103500.56;7253280;19;2004102;-61